sensor_id;sensor_type;location;lat;lon;timestamp;pressure;altitude;pressure_sealevel;temperature;humidity
71306;BME280;59097;46.858;18.632;2023-04-28T00:01:46;100947.78;;;4.53;81.20
71306;BME280;59097;46.858;18.632;2023-04-28T00:04:14;100942.84;;;4.50;81.27
71306;BME280;59097;46.858;18.632;2023-04-28T00:06:43;100937.81;;;4.37;82.14
71306;BME280;59097;46.858;18.632;2023-04-28T00:09:12;100906.31;;;4.18;82.16
71306;BME280;59097;46.858;18.632;2023-04-28T00:11:40;100943.22;;;4.35;82.76
71306;BME280;59097;46.858;18.632;2023-04-28T00:14:09;100939.06;;;4.23;83.26
71306;BME280;59097;46.858;18.632;2023-04-28T00:16:52;100945.16;;;4.24;82.58
71306;BME280;59097;46.858;18.632;2023-04-28T00:19:37;100928.00;;;4.20;82.64
71306;BME280;59097;46.858;18.632;2023-04-28T00:22:03;100875.56;;;3.80;82.51
71306;BME280;59097;46.858;18.632;2023-04-28T00:24:29;100950.09;;;4.27;82.56
71306;BME280;59097;46.858;18.632;2023-04-28T00:26:57;100934.06;;;4.20;82.49
71306;BME280;59097;46.858;18.632;2023-04-28T00:29:23;100904.63;;;3.98;82.54
71306;BME280;59097;46.858;18.632;2023-04-28T00:31:49;100862.97;;;3.74;82.44
71306;BME280;59097;46.858;18.632;2023-04-28T00:34:16;100903.50;;;3.91;83.40
71306;BME280;59097;46.858;18.632;2023-04-28T00:36:48;100932.47;;;4.67;82.00
71306;BME280;59097;46.858;18.632;2023-04-28T00:39:16;100932.47;;;4.67;82.00
71306;BME280;59097;46.858;18.632;2023-04-28T00:41:45;100939.13;;;3.93;84.34
71306;BME280;59097;46.858;18.632;2023-04-28T00:44:13;100943.47;;;3.73;84.85
71306;BME280;59097;46.858;18.632;2023-04-28T00:46:41;100933.81;;;3.74;85.74
71306;BME280;59097;46.858;18.632;2023-04-28T00:49:10;100931.25;;;3.63;85.79
71306;BME280;59097;46.858;18.632;2023-04-28T00:51:38;100932.25;;;3.62;86.61
71306;BME280;59097;46.858;18.632;2023-04-28T00:54:06;100912.75;;;3.55;86.45
71306;BME280;59097;46.858;18.632;2023-04-28T00:56:48;100927.69;;;3.64;86.19
71306;BME280;59097;46.858;18.632;2023-04-28T00:59:30;100933.19;;;3.61;86.56
71306;BME280;59097;46.858;18.632;2023-04-28T01:01:58;100910.00;;;3.56;85.26
71306;BME280;59097;46.858;18.632;2023-04-28T01:04:26;100924.84;;;3.76;86.19
71306;BME280;59097;46.858;18.632;2023-04-28T01:06:54;100917.47;;;3.61;85.44
71306;BME280;59097;46.858;18.632;2023-04-28T01:09:21;100922.53;;;3.53;85.96
71306;BME280;59097;46.858;18.632;2023-04-28T01:11:53;100925.63;;;4.17;84.02
71306;BME280;59097;46.858;18.632;2023-04-28T01:14:26;100925.63;;;4.17;84.02
71306;BME280;59097;46.858;18.632;2023-04-28T01:16:54;100927.50;;;3.56;85.21
71306;BME280;59097;46.858;18.632;2023-04-28T01:19:24;100928.75;;;3.52;85.23
71306;BME280;59097;46.858;18.632;2023-04-28T01:21:52;100925.16;;;3.53;85.42
71306;BME280;59097;46.858;18.632;2023-04-28T01:24:20;100932.06;;;3.54;85.95
71306;BME280;59097;46.858;18.632;2023-04-28T01:26:49;100916.03;;;3.47;85.59
71306;BME280;59097;46.858;18.632;2023-04-28T01:29:17;100946.84;;;3.55;84.91
71306;BME280;59097;46.858;18.632;2023-04-28T01:32:00;100945.63;;;3.59;84.37
71306;BME280;59097;46.858;18.632;2023-04-28T01:34:56;100936.91;;;3.58;84.14
71306;BME280;59097;46.858;18.632;2023-04-28T01:37:22;100934.03;;;3.61;84.26
71306;BME280;59097;46.858;18.632;2023-04-28T01:39:48;100931.41;;;3.61;84.32
71306;BME280;59097;46.858;18.632;2023-04-28T01:42:15;100933.19;;;3.61;84.07
71306;BME280;59097;46.858;18.632;2023-04-28T01:44:41;100945.78;;;3.67;84.66
71306;BME280;59097;46.858;18.632;2023-04-28T01:47:13;100945.28;;;4.32;82.16
71306;BME280;59097;46.858;18.632;2023-04-28T01:49:42;100945.28;;;4.32;82.16
71306;BME280;59097;46.858;18.632;2023-04-28T01:52:10;100900.53;;;3.35;84.24
71306;BME280;59097;46.858;18.632;2023-04-28T01:54:38;100925.16;;;3.53;84.72
71306;BME280;59097;46.858;18.632;2023-04-28T01:57:07;100939.41;;;3.60;84.84
71306;BME280;59097;46.858;18.632;2023-04-28T01:59:35;100942.03;;;3.60;85.34
71306;BME280;59097;46.858;18.632;2023-04-28T02:02:04;100948.09;;;3.60;85.40
71306;BME280;59097;46.858;18.632;2023-04-28T02:04:33;100950.59;;;3.62;85.44
71306;BME280;59097;46.858;18.632;2023-04-28T02:07:15;100929.69;;;3.51;85.67
71306;BME280;59097;46.858;18.632;2023-04-28T02:10:12;100952.53;;;3.60;85.49
71306;BME280;59097;46.858;18.632;2023-04-28T02:12:53;100958.31;;;3.63;85.67
71306;BME280;59097;46.858;18.632;2023-04-28T02:15:20;100949.47;;;3.55;86.05
71306;BME280;59097;46.858;18.632;2023-04-28T02:17:46;100945.87;;;3.56;86.00
71306;BME280;59097;46.858;18.632;2023-04-28T02:20:13;100941.97;;;3.50;85.97
71306;BME280;59097;46.858;18.632;2023-04-28T02:22:40;100951.25;;;3.54;86.13
71306;BME280;59097;46.858;18.632;2023-04-28T02:25:12;100952.09;;;3.95;85.15
71306;BME280;59097;46.858;18.632;2023-04-28T02:27:41;100952.09;;;3.95;85.15
71306;BME280;59097;46.858;18.632;2023-04-28T02:30:09;100948.66;;;3.34;86.42
71306;BME280;59097;46.858;18.632;2023-04-28T02:32:37;100941.13;;;3.19;86.63
71306;BME280;59097;46.858;18.632;2023-04-28T02:35:06;100955.00;;;3.31;86.94
71306;BME280;59097;46.858;18.632;2023-04-28T02:37:34;100963.94;;;3.29;87.42
71306;BME280;59097;46.858;18.632;2023-04-28T02:40:02;100959.81;;;3.26;87.58
71306;BME280;59097;46.858;18.632;2023-04-28T02:42:30;100939.97;;;3.12;87.35
71306;BME280;59097;46.858;18.632;2023-04-28T02:44:58;100953.72;;;3.26;87.66
71306;BME280;59097;46.858;18.632;2023-04-28T02:47:56;100957.56;;;3.22;87.73
71306;BME280;59097;46.858;18.632;2023-04-28T02:50:22;100950.16;;;3.06;89.42
71306;BME280;59097;46.858;18.632;2023-04-28T02:52:48;100963.75;;;3.21;88.53
71306;BME280;59097;46.858;18.632;2023-04-28T02:55:14;100962.03;;;3.10;88.30
71306;BME280;59097;46.858;18.632;2023-04-28T02:57:48;100951.69;;;3.08;88.32
71306;BME280;59097;46.858;18.632;2023-04-28T03:00:15;100961.09;;;3.11;89.38
71306;BME280;59097;46.858;18.632;2023-04-28T03:02:47;100960.19;;;3.72;86.45
71306;BME280;59097;46.858;18.632;2023-04-28T03:05:16;100960.19;;;3.72;86.45
71306;BME280;59097;46.858;18.632;2023-04-28T03:07:44;100965.44;;;3.01;91.40
71306;BME280;59097;46.858;18.632;2023-04-28T03:10:12;100958.56;;;2.89;92.39
71306;BME280;59097;46.858;18.632;2023-04-28T03:12:40;100960.69;;;2.95;91.92
71306;BME280;59097;46.858;18.632;2023-04-28T03:15:09;100967.34;;;2.99;91.40
71306;BME280;59097;46.858;18.632;2023-04-28T03:17:40;100962.16;;;3.08;90.76
71306;BME280;59097;46.858;18.632;2023-04-28T03:20:10;100968.06;;;3.22;89.78
71306;BME280;59097;46.858;18.632;2023-04-28T03:22:38;100970.84;;;3.30;89.25
71306;BME280;59097;46.858;18.632;2023-04-28T03:25:04;100970.38;;;3.45;88.81
71306;BME280;59097;46.858;18.632;2023-04-28T03:27:31;100968.09;;;3.52;88.24
71306;BME280;59097;46.858;18.632;2023-04-28T03:29:57;100943.62;;;3.21;89.05
71306;BME280;59097;46.858;18.632;2023-04-28T03:32:23;100966.31;;;3.52;88.34
71306;BME280;59097;46.858;18.632;2023-04-28T03:34:49;100971.00;;;3.58;88.11
71306;BME280;59097;46.858;18.632;2023-04-28T03:37:16;100962.72;;;3.63;87.66
71306;BME280;59097;46.858;18.632;2023-04-28T03:39:48;100966.75;;;4.56;84.34
71306;BME280;59097;46.858;18.632;2023-04-28T03:42:17;100966.75;;;4.56;84.34
71306;BME280;59097;46.858;18.632;2023-04-28T03:44:46;100953.53;;;3.68;87.82
71306;BME280;59097;46.858;18.632;2023-04-28T03:47:14;100963.97;;;3.89;88.48
71306;BME280;59097;46.858;18.632;2023-04-28T03:49:43;100966.34;;;4.02;87.78
71306;BME280;59097;46.858;18.632;2023-04-28T03:52:12;100943.00;;;3.99;87.47
71306;BME280;59097;46.858;18.632;2023-04-28T03:54:40;100963.22;;;4.27;86.97
71306;BME280;59097;46.858;18.632;2023-04-28T03:57:09;100958.97;;;4.35;86.62
71306;BME280;59097;46.858;18.632;2023-04-28T03:59:38;100960.50;;;4.47;86.97
71306;BME280;59097;46.858;18.632;2023-04-28T04:02:19;100975.19;;;4.60;86.18
71306;BME280;59097;46.858;18.632;2023-04-28T04:04:45;100969.37;;;4.75;85.14
71306;BME280;59097;46.858;18.632;2023-04-28T04:07:12;100969.22;;;4.48;85.83
71306;BME280;59097;46.858;18.632;2023-04-28T04:09:38;100936.88;;;4.67;84.42
71306;BME280;59097;46.858;18.632;2023-04-28T04:12:04;100950.03;;;4.76;84.22
71306;BME280;59097;46.858;18.632;2023-04-28T04:14:41;100947.81;;;4.62;82.95
71306;BME280;59097;46.858;18.632;2023-04-28T04:17:14;100974.88;;;5.76;79.38
71306;BME280;59097;46.858;18.632;2023-04-28T04:19:44;100974.88;;;5.76;79.38
71306;BME280;59097;46.858;18.632;2023-04-28T04:22:12;100981.69;;;4.84;80.05
71306;BME280;59097;46.858;18.632;2023-04-28T04:24:40;100990.28;;;5.05;79.15
71306;BME280;59097;46.858;18.632;2023-04-28T04:27:09;100996.22;;;5.07;79.33
71306;BME280;59097;46.858;18.632;2023-04-28T04:29:38;100982.63;;;5.22;81.03
71306;BME280;59097;46.858;18.632;2023-04-28T04:32:06;100978.97;;;5.42;80.85
71306;BME280;59097;46.858;18.632;2023-04-28T04:34:34;100963.34;;;5.40;80.11
71306;BME280;59097;46.858;18.632;2023-04-28T04:37:03;100927.09;;;5.34;79.64
71306;BME280;59097;46.858;18.632;2023-04-28T04:39:45;100966.16;;;5.76;80.24
71306;BME280;59097;46.858;18.632;2023-04-28T04:42:12;100939.69;;;5.77;79.67
71306;BME280;59097;46.858;18.632;2023-04-28T04:44:38;100965.63;;;5.62;80.87
71306;BME280;59097;46.858;18.632;2023-04-28T04:47:04;100968.00;;;6.02;78.96
71306;BME280;59097;46.858;18.632;2023-04-28T04:49:37;100966.38;;;6.64;75.20
71306;BME280;59097;46.858;18.632;2023-04-28T04:52:06;100966.38;;;6.64;75.20
71306;BME280;59097;46.858;18.632;2023-04-28T04:54:34;100971.25;;;6.41;76.03
71306;BME280;59097;46.858;18.632;2023-04-28T04:57:03;100977.31;;;9.05;68.47
71306;BME280;59097;46.858;18.632;2023-04-28T04:59:33;100964.19;;;10.15;58.55
71306;BME280;59097;46.858;18.632;2023-04-28T05:02:01;100971.91;;;9.86;58.95
71306;BME280;59097;46.858;18.632;2023-04-28T05:04:29;100978.25;;;8.48;62.91
71306;BME280;59097;46.858;18.632;2023-04-28T05:06:58;100942.16;;;7.81;66.98
71306;BME280;59097;46.858;18.632;2023-04-28T05:09:26;100956.44;;;8.04;66.33
71306;BME280;59097;46.858;18.632;2023-04-28T05:12:25;100960.72;;;7.97;63.98
71306;BME280;59097;46.858;18.632;2023-04-28T05:14:53;100964.94;;;7.90;67.28
71306;BME280;59097;46.858;18.632;2023-04-28T05:17:22;100969.34;;;7.73;69.83
71306;BME280;59097;46.858;18.632;2023-04-28T05:20:04;100971.00;;;7.74;71.39
71306;BME280;59097;46.858;18.632;2023-04-28T05:22:56;100982.84;;;8.38;68.59
71306;BME280;59097;46.858;18.632;2023-04-28T05:25:37;100977.84;;;8.27;68.53
71306;BME280;59097;46.858;18.632;2023-04-28T05:28:15;100973.81;;;8.64;67.57
71306;BME280;59097;46.858;18.632;2023-04-28T05:30:44;100978.12;;;8.90;66.01
71306;BME280;59097;46.858;18.632;2023-04-28T05:33:13;100982.47;;;9.07;66.00
71306;BME280;59097;46.858;18.632;2023-04-28T05:35:41;100971.97;;;8.49;65.98
71306;BME280;59097;46.858;18.632;2023-04-28T05:38:10;100985.03;;;8.50;68.42
71306;BME280;59097;46.858;18.632;2023-04-28T05:40:39;100966.91;;;8.21;70.63
71306;BME280;59097;46.858;18.632;2023-04-28T05:43:07;100984.91;;;8.92;67.59
71306;BME280;59097;46.858;18.632;2023-04-28T05:45:35;100992.03;;;8.83;68.44
71306;BME280;59097;46.858;18.632;2023-04-28T05:48:07;100967.72;;;8.88;67.80
71306;BME280;59097;46.858;18.632;2023-04-28T05:51:00;100989.34;;;8.67;69.66
71306;BME280;59097;46.858;18.632;2023-04-28T05:53:33;100991.66;;;8.62;70.23
71306;BME280;59097;46.858;18.632;2023-04-28T05:56:06;100981.63;;;9.06;70.24
71306;BME280;59097;46.858;18.632;2023-04-28T05:58:35;100985.94;;;8.99;70.89
71306;BME280;59097;46.858;18.632;2023-04-28T06:01:03;100990.06;;;9.18;70.43
71306;BME280;59097;46.858;18.632;2023-04-28T06:03:32;100990.53;;;8.73;72.23
71306;BME280;59097;46.858;18.632;2023-04-28T06:06:01;100984.59;;;9.11;70.43
71306;BME280;59097;46.858;18.632;2023-04-28T06:08:32;100987.59;;;10.03;67.81
71306;BME280;59097;46.858;18.632;2023-04-28T06:11:03;100984.09;;;10.72;65.10
71306;BME280;59097;46.858;18.632;2023-04-28T06:13:42;100969.63;;;9.75;67.51
71306;BME280;59097;46.858;18.632;2023-04-28T06:16:11;100977.91;;;9.64;68.02
71306;BME280;59097;46.858;18.632;2023-04-28T06:18:39;100984.69;;;9.66;67.91
71306;BME280;59097;46.858;18.632;2023-04-28T06:21:21;100988.97;;;10.30;66.46
71306;BME280;59097;46.858;18.632;2023-04-28T06:24:20;100992.75;;;9.89;69.70
71306;BME280;59097;46.858;18.632;2023-04-28T06:26:48;100986.56;;;10.13;68.56
71306;BME280;59097;46.858;18.632;2023-04-28T06:29:30;100975.97;;;10.74;66.86
71306;BME280;59097;46.858;18.632;2023-04-28T06:32:27;100986.00;;;11.61;63.90
71306;BME280;59097;46.858;18.632;2023-04-28T06:34:53;100983.38;;;12.05;61.05
71306;BME280;59097;46.858;18.632;2023-04-28T06:37:19;100978.97;;;12.12;62.15
71306;BME280;59097;46.858;18.632;2023-04-28T06:39:46;100982.00;;;12.24;59.23
71306;BME280;59097;46.858;18.632;2023-04-28T06:42:12;100978.25;;;12.54;60.20
71306;BME280;59097;46.858;18.632;2023-04-28T06:44:41;100994.62;;;12.22;60.08
71306;BME280;59097;46.858;18.632;2023-04-28T06:47:07;100993.75;;;12.15;58.68
71306;BME280;59097;46.858;18.632;2023-04-28T06:49:34;100990.84;;;11.80;59.19
71306;BME280;59097;46.858;18.632;2023-04-28T06:52:07;100997.22;;;13.50;56.11
71306;BME280;59097;46.858;18.632;2023-04-28T06:54:36;100997.22;;;13.50;56.11
71306;BME280;59097;46.858;18.632;2023-04-28T06:57:08;100985.94;;;13.06;55.49
71306;BME280;59097;46.858;18.632;2023-04-28T06:59:38;100995.88;;;13.12;56.02
71306;BME280;59097;46.858;18.632;2023-04-28T07:02:07;100971.81;;;12.84;56.29
71306;BME280;59097;46.858;18.632;2023-04-28T07:04:38;100964.41;;;13.50;54.73
71306;BME280;59097;46.858;18.632;2023-04-28T07:07:07;100928.03;;;13.70;53.56
71306;BME280;59097;46.858;18.632;2023-04-28T07:09:35;100977.00;;;13.62;52.37
71306;BME280;59097;46.858;18.632;2023-04-28T07:12:05;100989.16;;;14.06;52.15
71306;BME280;59097;46.858;18.632;2023-04-28T07:14:33;100981.38;;;14.11;50.88
71306;BME280;59097;46.858;18.632;2023-04-28T07:17:01;100975.25;;;14.17;50.72
71306;BME280;59097;46.858;18.632;2023-04-28T07:19:30;100989.13;;;14.40;50.90
71306;BME280;59097;46.858;18.632;2023-04-28T07:21:58;100962.66;;;14.38;50.04
71306;BME280;59097;46.858;18.632;2023-04-28T07:24:27;100965.41;;;14.78;48.23
71306;BME280;59097;46.858;18.632;2023-04-28T07:27:16;100973.25;;;15.05;46.49
71306;BME280;59097;46.858;18.632;2023-04-28T07:29:44;100967.31;;;14.30;45.27
71306;BME280;59097;46.858;18.632;2023-04-28T07:32:13;100976.91;;;14.72;45.82
71306;BME280;59097;46.858;18.632;2023-04-28T07:34:43;100978.00;;;14.97;46.38
71306;BME280;59097;46.858;18.632;2023-04-28T07:37:27;100981.44;;;14.24;48.62
71306;BME280;59097;46.858;18.632;2023-04-28T07:40:10;100936.47;;;14.81;47.54
71306;BME280;59097;46.858;18.632;2023-04-28T07:42:41;100966.09;;;15.52;47.53
71306;BME280;59097;46.858;18.632;2023-04-28T07:45:08;100969.03;;;16.14;45.30
71306;BME280;59097;46.858;18.632;2023-04-28T07:47:37;100929.53;;;16.03;44.28
71306;BME280;59097;46.858;18.632;2023-04-28T07:50:20;100967.06;;;16.79;44.43
71306;BME280;59097;46.858;18.632;2023-04-28T07:53:01;100924.41;;;16.53;40.66
71306;BME280;59097;46.858;18.632;2023-04-28T07:55:28;100935.31;;;16.82;42.46
71306;BME280;59097;46.858;18.632;2023-04-28T07:57:56;100935.50;;;18.46;36.42
71306;BME280;59097;46.858;18.632;2023-04-28T08:00:25;100931.00;;;20.43;34.77
71306;BME280;59097;46.858;18.632;2023-04-28T08:02:57;100926.09;;;22.87;32.21
71306;BME280;59097;46.858;18.632;2023-04-28T08:05:44;100924.03;;;23.77;27.43
71306;BME280;59097;46.858;18.632;2023-04-28T08:08:33;100931.94;;;24.71;26.24
71306;BME280;59097;46.858;18.632;2023-04-28T08:11:17;100925.94;;;22.23;26.30
71306;BME280;59097;46.858;18.632;2023-04-28T08:13:44;100898.78;;;24.24;24.71
71306;BME280;59097;46.858;18.632;2023-04-28T08:16:12;100925.25;;;22.60;25.20
71306;BME280;59097;46.858;18.632;2023-04-28T08:18:38;100929.72;;;25.84;22.04
71306;BME280;59097;46.858;18.632;2023-04-28T08:21:06;100911.63;;;23.03;23.70
71306;BME280;59097;46.858;18.632;2023-04-28T08:23:33;100902.47;;;25.99;22.55
71306;BME280;59097;46.858;18.632;2023-04-28T08:26:05;100907.72;;;25.71;22.23
71306;BME280;59097;46.858;18.632;2023-04-28T08:28:34;100794.69;;;24.65;22.94
71306;BME280;59097;46.858;18.632;2023-04-28T08:31:03;100895.53;;;23.65;24.68
71306;BME280;59097;46.858;18.632;2023-04-28T08:33:34;100901.59;;;23.87;23.65
71306;BME280;59097;46.858;18.632;2023-04-28T08:36:03;100893.25;;;23.42;23.28
71306;BME280;59097;46.858;18.632;2023-04-28T08:38:32;100895.28;;;24.33;22.04
71306;BME280;59097;46.858;18.632;2023-04-28T08:41:03;100884.25;;;20.99;23.75
71306;BME280;59097;46.858;18.632;2023-04-28T08:43:35;100884.66;;;23.18;23.07
71306;BME280;59097;46.858;18.632;2023-04-28T08:46:06;100872.53;;;22.84;23.61
71306;BME280;59097;46.858;18.632;2023-04-28T08:48:42;100878.78;;;22.09;24.06
71306;BME280;59097;46.858;18.632;2023-04-28T08:51:15;100880.16;;;22.92;24.40
71306;BME280;59097;46.858;18.632;2023-04-28T08:53:49;100884.31;;;21.98;24.23
71306;BME280;59097;46.858;18.632;2023-04-28T08:56:22;100881.81;;;22.13;22.62
71306;BME280;59097;46.858;18.632;2023-04-28T08:58:52;100876.34;;;22.34;23.46
71306;BME280;59097;46.858;18.632;2023-04-28T09:01:21;100868.53;;;22.11;23.13
71306;BME280;59097;46.858;18.632;2023-04-28T09:03:53;100876.84;;;21.06;25.72
71306;BME280;59097;46.858;18.632;2023-04-28T09:08:49;100870.41;;;21.46;24.79
71306;BME280;59097;46.858;18.632;2023-04-28T09:11:17;100867.53;;;23.44;25.29
71306;BME280;59097;46.858;18.632;2023-04-28T09:13:46;100873.97;;;22.38;23.26
71306;BME280;59097;46.858;18.632;2023-04-28T09:16:14;100879.34;;;23.75;23.06
71306;BME280;59097;46.858;18.632;2023-04-28T09:18:55;100885.25;;;22.62;24.34
71306;BME280;59097;46.858;18.632;2023-04-28T09:21:54;100862.38;;;23.01;23.35
71306;BME280;59097;46.858;18.632;2023-04-28T09:24:26;100888.66;;;21.39;25.43
71306;BME280;59097;46.858;18.632;2023-04-28T09:27:09;100872.84;;;20.31;27.18
71306;BME280;59097;46.858;18.632;2023-04-28T09:29:52;100880.84;;;19.74;26.64
71306;BME280;59097;46.858;18.632;2023-04-28T09:32:21;100885.09;;;19.98;28.10
71306;BME280;59097;46.858;18.632;2023-04-28T09:35:02;100885.69;;;19.49;28.13
71306;BME280;59097;46.858;18.632;2023-04-28T09:38:00;100876.91;;;19.42;28.79
71306;BME280;59097;46.858;18.632;2023-04-28T09:40:27;100880.22;;;18.38;30.44
71306;BME280;59097;46.858;18.632;2023-04-28T09:42:53;100832.00;;;18.32;30.49
71306;BME280;59097;46.858;18.632;2023-04-28T09:45:38;100875.03;;;19.54;29.43
71306;BME280;59097;46.858;18.632;2023-04-28T09:48:10;100875.03;;;19.54;29.43
71306;BME280;59097;46.858;18.632;2023-04-28T09:50:39;100873.75;;;19.45;29.77
71306;BME280;59097;46.858;18.632;2023-04-28T09:53:10;100858.31;;;19.06;30.61
71306;BME280;59097;46.858;18.632;2023-04-28T09:55:42;100870.06;;;18.40;30.57
71306;BME280;59097;46.858;18.632;2023-04-28T09:58:12;100869.53;;;17.72;31.22
71306;BME280;59097;46.858;18.632;2023-04-28T10:00:42;100867.94;;;17.46;31.77
71306;BME280;59097;46.858;18.632;2023-04-28T10:03:13;100868.38;;;17.43;31.43
71306;BME280;59097;46.858;18.632;2023-04-28T10:05:42;100863.47;;;18.24;31.41
71306;BME280;59097;46.858;18.632;2023-04-28T10:08:12;100856.84;;;17.97;31.42
71306;BME280;59097;46.858;18.632;2023-04-28T10:10:42;100857.41;;;17.99;31.60
71306;BME280;59097;46.858;18.632;2023-04-28T10:13:11;100841.31;;;17.70;32.19
71306;BME280;59097;46.858;18.632;2023-04-28T10:15:42;100841.47;;;18.34;32.92
71306;BME280;59097;46.858;18.632;2023-04-28T10:18:14;100840.78;;;19.38;30.83
71306;BME280;59097;46.858;18.632;2023-04-28T10:20:47;100844.28;;;18.92;31.38
71306;BME280;59097;46.858;18.632;2023-04-28T10:27:06;100832.75;;;18.50;29.91
71306;BME280;59097;46.858;18.632;2023-04-28T10:29:34;100829.78;;;18.29;32.28
71306;BME280;59097;46.858;18.632;2023-04-28T10:32:15;100815.84;;;18.73;32.04
71306;BME280;59097;46.858;18.632;2023-04-28T10:34:42;100825.00;;;18.42;31.32
71306;BME280;59097;46.858;18.632;2023-04-28T10:37:09;100796.47;;;18.18;32.55
71306;BME280;59097;46.858;18.632;2023-04-28T10:39:37;100821.44;;;18.48;32.71
71306;BME280;59097;46.858;18.632;2023-04-28T10:58:45;100797.09;;;18.43;32.97
71306;BME280;59097;46.858;18.632;2023-04-28T11:03:53;100791.66;;;18.96;31.11
71306;BME280;59097;46.858;18.632;2023-04-28T11:14:31;100764.41;;;19.39;30.55
71306;BME280;59097;46.858;18.632;2023-04-28T11:17:19;100761.12;;;19.37;30.70
71306;BME280;59097;46.858;18.632;2023-04-28T11:20:06;100754.28;;;18.95;32.27
71306;BME280;59097;46.858;18.632;2023-04-28T11:22:39;100722.28;;;18.93;31.62
71306;BME280;59097;46.858;18.632;2023-04-28T11:25:11;100746.16;;;19.41;30.34
71306;BME280;59097;46.858;18.632;2023-04-28T11:27:47;100738.34;;;18.35;33.01
71306;BME280;59097;46.858;18.632;2023-04-28T11:30:38;100734.38;;;18.38;33.06
71306;BME280;59097;46.858;18.632;2023-04-28T11:33:31;100724.72;;;18.37;33.91
71306;BME280;59097;46.858;18.632;2023-04-28T11:38:59;100733.13;;;17.87;34.60
71306;BME280;59097;46.858;18.632;2023-04-28T11:41:47;100729.44;;;17.70;34.44
71306;BME280;59097;46.858;18.632;2023-04-28T11:44:17;100700.34;;;17.55;34.54
71306;BME280;59097;46.858;18.632;2023-04-28T11:46:51;100728.16;;;18.02;35.04
71306;BME280;59097;46.858;18.632;2023-04-28T11:49:30;100717.97;;;18.57;33.81
71306;BME280;59097;46.858;18.632;2023-04-28T11:52:05;100717.97;;;18.57;33.81
71306;BME280;59097;46.858;18.632;2023-04-28T11:54:35;100719.34;;;17.84;34.69
71306;BME280;59097;46.858;18.632;2023-04-28T11:57:04;100720.41;;;17.94;35.88
71306;BME280;59097;46.858;18.632;2023-04-28T11:59:34;100717.41;;;18.02;35.23
71306;BME280;59097;46.858;18.632;2023-04-28T12:02:04;100713.97;;;17.84;35.06
71306;BME280;59097;46.858;18.632;2023-04-28T12:05:14;100700.72;;;18.00;35.57
71306;BME280;59097;46.858;18.632;2023-04-28T12:09:14;100694.69;;;18.28;34.72
71306;BME280;59097;46.858;18.632;2023-04-28T12:12:00;100698.06;;;18.35;33.64
71306;BME280;59097;46.858;18.632;2023-04-28T12:14:31;100647.31;;;18.57;34.03
71306;BME280;59097;46.858;18.632;2023-04-28T12:17:29;100692.28;;;18.61;33.81
71306;BME280;59097;46.858;18.632;2023-04-28T12:20:08;100677.69;;;19.09;33.67
71306;BME280;59097;46.858;18.632;2023-04-28T12:22:48;100632.34;;;18.03;33.91
71306;BME280;59097;46.858;18.632;2023-04-28T12:25:49;100676.47;;;18.30;33.96
71306;BME280;59097;46.858;18.632;2023-04-28T12:28:38;100562.00;;;17.36;34.14
71306;BME280;59097;46.858;18.632;2023-04-28T12:31:08;100666.31;;;18.20;34.30
71306;BME280;59097;46.858;18.632;2023-04-28T12:33:54;100540.28;;;17.38;34.47
71306;BME280;59097;46.858;18.632;2023-04-28T12:36:23;100547.50;;;17.67;36.04
71306;BME280;59097;46.858;18.632;2023-04-28T12:39:12;100565.22;;;18.14;34.85
71306;BME280;59097;46.858;18.632;2023-04-28T12:41:41;100590.91;;;17.87;35.80
71306;BME280;59097;46.858;18.632;2023-04-28T12:44:13;100487.13;;;17.12;35.26
71306;BME280;59097;46.858;18.632;2023-04-28T12:46:43;100597.53;;;17.96;35.90
71306;BME280;59097;46.858;18.632;2023-04-28T12:49:11;100544.00;;;17.55;35.54
71306;BME280;59097;46.858;18.632;2023-04-28T12:52:10;100566.53;;;17.36;36.66
71306;BME280;59097;46.858;18.632;2023-04-28T12:54:38;100542.00;;;17.09;37.95
71306;BME280;59097;46.858;18.632;2023-04-28T12:57:16;100615.12;;;17.57;36.63
71306;BME280;59097;46.858;18.632;2023-04-28T12:59:43;100611.06;;;17.67;36.28
71306;BME280;59097;46.858;18.632;2023-04-28T13:02:16;100588.09;;;18.40;36.76
71306;BME280;59097;46.858;18.632;2023-04-28T13:04:45;100588.09;;;18.40;36.76
71306;BME280;59097;46.858;18.632;2023-04-28T13:07:15;100589.09;;;17.58;37.52
71306;BME280;59097;46.858;18.632;2023-04-28T13:09:44;100578.28;;;17.76;37.07
71306;BME280;59097;46.858;18.632;2023-04-28T13:12:12;100577.97;;;17.96;37.38
71306;BME280;59097;46.858;18.632;2023-04-28T13:14:41;100582.50;;;17.95;37.50
71306;BME280;59097;46.858;18.632;2023-04-28T13:17:10;100546.47;;;17.80;37.19
71306;BME280;59097;46.858;18.632;2023-04-28T13:19:39;100547.00;;;17.58;37.31
71306;BME280;59097;46.858;18.632;2023-04-28T13:22:07;100578.66;;;18.03;36.84
71306;BME280;59097;46.858;18.632;2023-04-28T13:24:36;100567.69;;;17.70;37.06
71306;BME280;59097;46.858;18.632;2023-04-28T13:27:04;100581.44;;;17.85;36.69
71306;BME280;59097;46.858;18.632;2023-04-28T13:29:37;100575.84;;;18.21;37.11
71306;BME280;59097;46.858;18.632;2023-04-28T13:32:05;100569.16;;;18.35;37.79
71306;BME280;59097;46.858;18.632;2023-04-28T13:34:57;100574.91;;;18.15;36.93
71306;BME280;59097;46.858;18.632;2023-04-28T13:37:26;100550.19;;;18.02;37.13
71306;BME280;59097;46.858;18.632;2023-04-28T13:40:11;100569.19;;;18.12;37.55
71306;BME280;59097;46.858;18.632;2023-04-28T13:42:40;100554.38;;;18.21;36.58
71306;BME280;59097;46.858;18.632;2023-04-28T13:45:06;100532.13;;;17.86;36.87
71306;BME280;59097;46.858;18.632;2023-04-28T13:47:32;100562.97;;;18.46;36.56
71306;BME280;59097;46.858;18.632;2023-04-28T13:50:01;100565.22;;;18.14;37.29